createdAt,value
2022-09-18T00:00:29.260Z,15.24
2022-09-18T00:01:31.845Z,15.31
2022-09-18T00:02:29.447Z,15.36
2022-09-18T00:03:29.922Z,15.39
2022-09-18T00:04:29.256Z,15.42
2022-09-18T00:05:29.084Z,15.45
2022-09-18T00:06:33.222Z,15.44
2022-09-18T00:07:29.065Z,15.38
2022-09-18T00:08:29.283Z,15.32
2022-09-18T00:09:29.111Z,15.25
2022-09-18T00:11:31.346Z,15.15
2022-09-18T00:12:29.150Z,15.12
2022-09-18T00:13:29.126Z,15.10
2022-09-18T00:14:29.168Z,15.06
2022-09-18T00:15:29.096Z,15.03
2022-09-18T00:16:29.426Z,15.00
2022-09-18T00:17:29.096Z,15.01
2022-09-18T00:19:29.475Z,15.03
2022-09-18T00:20:29.153Z,15.05
2022-09-18T00:21:31.999Z,15.03
2022-09-18T00:23:30.546Z,15.06
2022-09-18T00:24:29.113Z,15.08
2022-09-18T00:25:29.830Z,15.10
2022-09-18T00:26:30.295Z,15.11
2022-09-18T00:28:29.823Z,15.13
2022-09-18T00:29:29.326Z,15.15
2022-09-18T00:30:29.092Z,15.14
2022-09-18T00:31:31.932Z,15.13
2022-09-18T00:32:29.156Z,15.10
2022-09-18T00:33:29.140Z,15.08
2022-09-18T00:34:29.203Z,15.07
2022-09-18T00:35:29.147Z,15.05
2022-09-18T00:37:29.208Z,15.08
2022-09-18T00:38:32.172Z,15.14
2022-09-18T00:39:29.168Z,15.23
2022-09-18T00:40:29.499Z,15.29
2022-09-18T00:41:31.695Z,15.35
2022-09-18T00:42:29.102Z,15.40
2022-09-18T00:44:38.585Z,15.42
2022-09-18T00:46:34.567Z,15.40
2022-09-18T00:47:33.250Z,15.38
2022-09-18T00:48:38.567Z,15.39
2022-09-18T00:49:30.028Z,15.41
2022-09-18T00:50:29.276Z,15.45
2022-09-18T00:51:30.617Z,15.54
2022-09-18T00:52:37.382Z,15.63
2022-09-18T00:53:30.120Z,15.65
2022-09-18T00:54:35.400Z,15.63
2022-09-18T00:55:33.394Z,15.62
2022-09-18T00:56:29.242Z,15.61
2022-09-18T00:57:33.440Z,15.62
2022-09-18T00:58:29.164Z,15.61
2022-09-18T00:59:32.622Z,15.60
2022-09-18T01:01:29.726Z,15.61
2022-09-18T01:03:31.072Z,15.63
2022-09-18T01:04:30.140Z,15.61
2022-09-18T01:05:44.269Z,15.55
2022-09-18T01:06:41.675Z,15.50
2022-09-18T01:07:46.745Z,15.48
2022-09-18T01:11:33.517Z,15.42
2022-09-18T01:12:38.409Z,15.40
2022-09-18T01:14:43.580Z,15.43
2022-09-18T01:15:41.864Z,15.47
2022-09-18T01:16:35.588Z,15.54
2022-09-18T01:17:43.180Z,15.61
2022-09-18T01:18:40.801Z,15.67
2022-09-18T01:19:47.413Z,15.76
2022-09-18T01:20:41.685Z,15.84
2022-09-18T01:21:34.358Z,15.91
2022-09-18T01:22:47.216Z,15.97
2022-09-18T01:23:38.307Z,16.00
2022-09-18T01:24:45.477Z,16.04
2022-09-18T01:25:43.978Z,16.06
2022-09-18T01:26:43.739Z,16.08
2022-09-18T01:28:34.325Z,16.06
2022-09-18T01:29:37.158Z,16.01
2022-09-18T01:30:30.236Z,15.98
2022-09-18T01:31:33.912Z,15.97
2022-09-18T01:32:42.130Z,15.94
2022-09-18T01:33:37.034Z,15.95
2022-09-18T01:34:36.002Z,15.94
2022-09-18T01:35:41.687Z,15.91
2022-09-18T01:36:34.803Z,15.90
2022-09-18T01:37:43.558Z,15.89
2022-09-18T01:38:32.635Z,15.90
2022-09-18T01:39:31.867Z,15.95
2022-09-18T01:40:31.293Z,16.03
2022-09-18T01:41:30.771Z,16.13
2022-09-18T01:42:31.844Z,16.23
2022-09-18T01:43:31.470Z,16.32
2022-09-18T01:44:32.966Z,16.42
2022-09-18T01:45:34.267Z,16.51
2022-09-18T01:46:30.289Z,16.59
2022-09-18T01:47:36.437Z,16.63
2022-09-18T01:48:37.740Z,16.68
2022-09-18T01:49:34.451Z,16.73
2022-09-18T01:50:35.185Z,16.80
2022-09-18T01:51:34.859Z,16.88
2022-09-18T01:52:34.236Z,16.97
2022-09-18T01:53:34.535Z,17.02
2022-09-18T01:54:33.325Z,16.99
2022-09-18T01:55:31.536Z,16.95
2022-09-18T01:56:36.773Z,16.91
2022-09-18T01:57:37.648Z,16.85
2022-09-18T01:58:32.921Z,16.76
2022-09-18T01:59:37.561Z,16.72
2022-09-18T02:00:32.553Z,16.68
2022-09-18T02:01:31.793Z,16.67
2022-09-18T02:02:32.758Z,16.70
2022-09-18T02:03:33.774Z,16.72
2022-09-18T02:05:33.079Z,16.74
2022-09-18T02:06:35.292Z,16.75
2022-09-18T02:07:36.853Z,16.76
2022-09-18T02:08:40.981Z,16.78
2022-09-18T02:09:29.537Z,16.80
2022-09-18T02:10:32.020Z,16.84
2022-09-18T02:13:36.945Z,16.79
2022-09-18T02:15:36.691Z,16.77
2022-09-18T02:16:35.294Z,16.75
2022-09-18T02:17:34.705Z,16.74
2022-09-18T02:19:38.288Z,16.77
2022-09-18T02:20:31.967Z,16.79
2022-09-18T02:21:31.081Z,16.81
2022-09-18T02:22:33.114Z,16.84
2022-09-18T02:23:30.404Z,16.87
2022-09-18T02:24:33.402Z,16.91
2022-09-18T02:25:35.680Z,16.94
2022-09-18T02:26:29.475Z,16.98
2022-09-18T02:27:31.240Z,17.01
2022-09-18T02:29:30.053Z,17.00
2022-09-18T02:30:30.692Z,16.95
2022-09-18T02:31:29.706Z,16.87
2022-09-18T02:32:29.383Z,16.79
2022-09-18T02:33:31.539Z,16.70
2022-09-18T02:34:31.225Z,16.65
2022-09-18T02:35:41.164Z,16.60
2022-09-18T02:36:47.155Z,16.58
2022-09-18T02:37:43.762Z,16.56
2022-09-18T02:38:36.966Z,16.58
2022-09-18T02:39:36.808Z,16.60
2022-09-18T02:40:42.896Z,16.64
2022-09-18T02:41:34.266Z,16.68
2022-09-18T02:42:35.051Z,16.72
2022-09-18T02:43:34.881Z,16.75
2022-09-18T02:44:41.215Z,16.78
2022-09-18T02:46:43.000Z,16.77
2022-09-18T02:47:40.530Z,16.73
2022-09-18T02:48:45.566Z,16.67
2022-09-18T02:49:36.330Z,16.62
2022-09-18T02:50:38.680Z,16.58
2022-09-18T02:51:42.593Z,16.54
2022-09-18T02:52:38.708Z,16.50
2022-09-18T02:53:35.661Z,16.45
2022-09-18T02:54:36.563Z,16.42
2022-09-18T02:55:38.535Z,16.41
2022-09-18T02:56:34.300Z,16.39
2022-09-18T02:57:36.728Z,16.38
2022-09-18T02:58:40.311Z,16.37
2022-09-18T03:00:32.019Z,16.38
2022-09-18T03:01:30.262Z,16.40
2022-09-18T03:02:29.503Z,16.41
2022-09-18T03:03:32.727Z,16.43
2022-09-18T03:04:29.895Z,16.48
2022-09-18T03:05:29.621Z,16.54
2022-09-18T03:06:29.140Z,16.60
2022-09-18T03:07:29.021Z,16.67
2022-09-18T03:08:29.128Z,16.71
2022-09-18T03:09:30.275Z,16.72
2022-09-18T03:12:29.264Z,16.73
2022-09-18T03:13:29.007Z,16.72
2022-09-18T03:14:29.029Z,16.69
2022-09-18T03:15:29.144Z,16.63
2022-09-18T03:16:29.211Z,16.55
2022-09-18T03:17:29.032Z,16.51
2022-09-18T03:18:29.066Z,16.49
2022-09-18T03:19:29.029Z,16.44
2022-09-18T03:20:29.049Z,16.41
2022-09-18T03:21:29.101Z,16.35
2022-09-18T03:22:29.022Z,16.32
2022-09-18T03:23:28.971Z,16.30
2022-09-18T03:24:29.485Z,16.27
2022-09-18T03:25:28.943Z,16.28
2022-09-18T03:26:28.983Z,16.29
2022-09-18T03:27:28.999Z,16.31
2022-09-18T03:28:31.115Z,16.32
2022-09-18T03:29:29.145Z,16.33
2022-09-18T03:31:29.718Z,16.34
2022-09-18T03:32:29.026Z,16.36
2022-09-18T03:33:29.022Z,16.39
2022-09-18T03:34:29.006Z,16.42
2022-09-18T03:35:28.952Z,16.44
2022-09-18T03:36:29.056Z,16.45
2022-09-18T03:37:28.984Z,16.46
2022-09-18T03:38:29.768Z,16.50
2022-09-18T03:39:29.032Z,16.53
2022-09-18T03:40:29.632Z,16.58
2022-09-18T03:41:28.950Z,16.61
2022-09-18T03:42:29.387Z,16.64
2022-09-18T03:43:28.979Z,16.66
2022-09-18T03:45:29.109Z,16.64
2022-09-18T03:46:29.018Z,16.63
2022-09-18T03:47:31.845Z,16.60
2022-09-18T03:48:29.202Z,16.57
2022-09-18T03:49:28.966Z,16.53
2022-09-18T03:50:29.098Z,16.50
2022-09-18T03:51:29.033Z,16.46
2022-09-18T03:52:30.389Z,16.43
2022-09-18T03:53:28.955Z,16.41
2022-09-18T03:54:29.010Z,16.42
2022-09-18T03:56:29.091Z,16.41
2022-09-18T03:58:29.007Z,16.40
2022-09-18T03:59:28.949Z,16.38
2022-09-18T04:00:29.424Z,16.36
2022-09-18T04:01:29.002Z,16.34
2022-09-18T04:02:29.061Z,16.32
2022-09-18T04:03:28.972Z,16.30
2022-09-18T04:06:28.998Z,16.32
2022-09-18T04:08:29.078Z,16.35
2022-09-18T04:09:28.929Z,16.37
2022-09-18T04:11:29.007Z,16.38
2022-09-18T04:12:29.155Z,16.39
2022-09-18T04:13:29.977Z,16.41
2022-09-18T04:14:30.263Z,16.43
2022-09-18T04:15:29.021Z,16.45
2022-09-18T04:16:29.105Z,16.46
2022-09-18T04:17:28.959Z,16.48
2022-09-18T04:18:29.021Z,16.50
2022-09-18T04:20:30.085Z,16.51
2022-09-18T04:22:28.987Z,16.50
2022-09-18T04:24:29.221Z,16.49
2022-09-18T04:25:28.996Z,16.48
2022-09-18T04:26:28.998Z,16.50
2022-09-18T04:29:28.938Z,16.48
2022-09-18T04:30:28.923Z,16.47
2022-09-18T04:31:29.113Z,16.45
2022-09-18T04:32:28.960Z,16.46
2022-09-18T04:33:28.963Z,16.44
2022-09-18T04:34:28.945Z,16.42
2022-09-18T04:35:28.986Z,16.40
2022-09-18T04:36:29.148Z,16.38
2022-09-18T04:37:28.973Z,16.35
2022-09-18T04:39:29.021Z,16.33
2022-09-18T04:40:29.084Z,16.32
2022-09-18T04:41:29.007Z,16.30
2022-09-18T04:42:28.972Z,16.29
2022-09-18T04:46:29.416Z,16.27
2022-09-18T04:47:28.951Z,16.26
2022-09-18T04:48:28.961Z,16.23
2022-09-18T04:49:28.915Z,16.21
2022-09-18T04:50:28.944Z,16.19
2022-09-18T04:51:28.908Z,16.18
2022-09-18T04:52:29.012Z,16.16
2022-09-18T04:53:28.921Z,16.14
2022-09-18T04:54:28.931Z,16.12
2022-09-18T04:55:29.269Z,16.10
2022-09-18T04:56:28.971Z,16.09
2022-09-18T04:57:28.955Z,16.07
2022-09-18T05:01:29.047Z,16.08
2022-09-18T05:03:29.058Z,16.09
2022-09-18T05:04:28.953Z,16.11
2022-09-18T05:06:28.931Z,16.10
2022-09-18T05:07:29.007Z,16.09
2022-09-18T05:08:30.408Z,16.08
2022-09-18T05:09:28.910Z,16.07
2022-09-18T05:11:29.729Z,16.06
2022-09-18T05:12:28.998Z,16.03
2022-09-18T05:13:29.011Z,16.02
2022-09-18T05:14:28.891Z,16.00
2022-09-18T05:15:28.892Z,15.99
2022-09-18T05:16:28.929Z,15.98
2022-09-18T05:17:29.111Z,15.97
2022-09-18T05:18:28.928Z,15.95
2022-09-18T05:19:29.321Z,15.94
2022-09-18T05:20:29.574Z,15.93
2022-09-18T05:22:28.907Z,15.91
2022-09-18T05:23:29.156Z,15.90
2022-09-18T05:24:28.909Z,15.87
2022-09-18T05:25:30.637Z,15.84
2022-09-18T05:26:29.945Z,15.81
2022-09-18T05:27:28.902Z,15.79
2022-09-18T05:28:29.382Z,15.76
2022-09-18T05:29:28.895Z,15.73
2022-09-18T05:30:30.845Z,15.71
2022-09-18T05:31:29.011Z,15.68
2022-09-18T05:32:28.970Z,15.66
2022-09-18T05:33:28.903Z,15.63
2022-09-18T05:34:28.904Z,15.60
2022-09-18T05:35:31.206Z,15.57
2022-09-18T05:36:28.929Z,15.54
2022-09-18T05:37:28.956Z,15.50
2022-09-18T05:38:28.955Z,15.46
2022-09-18T05:39:28.905Z,15.42
2022-09-18T05:40:32.216Z,15.39
2022-09-18T05:41:28.955Z,15.35
2022-09-18T05:42:28.895Z,15.31
2022-09-18T05:43:30.021Z,15.28
2022-09-18T05:44:28.937Z,15.25
2022-09-18T05:45:28.927Z,15.22
2022-09-18T05:46:29.004Z,15.19
2022-09-18T05:47:28.896Z,15.16
2022-09-18T05:48:29.081Z,15.14
2022-09-18T05:49:29.010Z,15.12
2022-09-18T05:50:31.120Z,15.09
2022-09-18T05:51:28.946Z,15.06
2022-09-18T05:52:28.928Z,15.04
2022-09-18T05:53:29.014Z,15.00
2022-09-18T05:54:28.923Z,14.98
2022-09-18T05:55:31.781Z,14.95
2022-09-18T05:56:29.226Z,14.93
2022-09-18T05:57:28.957Z,14.90
2022-09-18T05:58:28.951Z,14.87
2022-09-18T05:59:28.924Z,14.85
2022-09-18T06:00:30.574Z,14.83
2022-09-18T06:01:30.332Z,14.81
2022-09-18T06:02:28.906Z,14.79
2022-09-18T06:03:28.882Z,14.78
2022-09-18T06:04:28.877Z,14.76
2022-09-18T06:05:30.887Z,14.74
2022-09-18T06:06:29.559Z,14.73
2022-09-18T06:07:28.870Z,14.71
2022-09-18T06:08:28.938Z,14.70
2022-09-18T06:09:28.944Z,14.69
2022-09-18T06:10:30.248Z,14.67
2022-09-18T06:11:29.417Z,14.65
2022-09-18T06:12:28.853Z,14.64
2022-09-18T06:13:29.099Z,14.63
2022-09-18T06:14:28.916Z,14.62
2022-09-18T06:15:29.197Z,14.61
2022-09-18T06:16:28.956Z,14.59
2022-09-18T06:17:28.913Z,14.57
2022-09-18T06:18:28.861Z,14.54
2022-09-18T06:19:28.953Z,14.53
2022-09-18T06:20:29.318Z,14.50
2022-09-18T06:21:29.260Z,14.47
2022-09-18T06:22:29.132Z,14.45
2022-09-18T06:23:29.951Z,14.43
2022-09-18T06:24:28.990Z,14.41
2022-09-18T06:25:29.882Z,14.37
2022-09-18T06:26:28.882Z,14.34
2022-09-18T06:27:28.890Z,14.32
2022-09-18T06:28:31.011Z,14.29
2022-09-18T06:29:28.871Z,14.27
2022-09-18T06:30:30.729Z,14.25
2022-09-18T06:31:28.952Z,14.22
2022-09-18T06:32:28.877Z,14.20
2022-09-18T06:33:30.589Z,14.19
2022-09-18T06:34:28.917Z,14.17
2022-09-18T06:35:28.991Z,14.16
2022-09-18T06:36:28.851Z,14.14
2022-09-18T06:37:28.835Z,14.12
2022-09-18T06:38:28.851Z,14.11
2022-09-18T06:39:28.848Z,14.09
2022-09-18T06:40:29.173Z,14.06
2022-09-18T06:41:28.819Z,14.05
2022-09-18T06:42:28.846Z,14.04
2022-09-18T06:43:29.053Z,14.03
2022-09-18T06:45:30.516Z,14.02
2022-09-18T06:46:28.947Z,14.01
2022-09-18T06:47:28.891Z,13.99
2022-09-18T06:48:29.987Z,13.98
2022-09-18T06:50:29.944Z,13.97
2022-09-18T06:52:29.508Z,13.94
2022-09-18T06:53:29.070Z,13.93
2022-09-18T06:54:28.888Z,13.92
2022-09-18T06:55:28.854Z,13.90
2022-09-18T06:57:28.898Z,13.89
2022-09-18T06:58:28.916Z,13.87
2022-09-18T06:59:28.869Z,13.86
2022-09-18T07:00:29.324Z,13.84
2022-09-18T07:01:29.009Z,13.82
2022-09-18T07:02:28.928Z,13.81
2022-09-18T07:03:29.037Z,13.79
2022-09-18T07:04:28.868Z,13.78
2022-09-18T07:05:31.369Z,13.77
2022-09-18T07:06:28.828Z,13.76
2022-09-18T07:07:28.937Z,13.74
2022-09-18T07:08:28.861Z,13.72
2022-09-18T07:09:28.838Z,13.70
2022-09-18T07:10:28.880Z,13.69
2022-09-18T07:11:29.097Z,13.68
2022-09-18T07:12:29.735Z,13.66
2022-09-18T07:13:32.276Z,13.65
2022-09-18T07:14:28.873Z,13.64
2022-09-18T07:15:28.969Z,13.63
2022-09-18T07:16:28.934Z,13.60
2022-09-18T07:17:28.808Z,13.59
2022-09-18T07:18:28.835Z,13.57
2022-09-18T07:19:28.869Z,13.56
2022-09-18T07:21:28.849Z,13.55
2022-09-18T07:22:29.065Z,13.54
2022-09-18T07:23:31.114Z,13.53
2022-09-18T07:24:29.978Z,13.51
2022-09-18T07:25:31.519Z,13.50
2022-09-18T07:26:28.853Z,13.49
2022-09-18T07:27:30.551Z,13.48
2022-09-18T07:28:29.430Z,13.47
2022-09-18T07:29:28.859Z,13.45
2022-09-18T07:30:29.162Z,13.44
2022-09-18T07:31:28.852Z,13.43
2022-09-18T07:32:28.882Z,13.41
2022-09-18T07:33:28.855Z,13.40
2022-09-18T07:34:28.860Z,13.39
2022-09-18T07:35:29.031Z,13.38
2022-09-18T07:36:28.841Z,13.37
2022-09-18T07:39:28.921Z,13.36
2022-09-18T07:40:29.719Z,13.34
2022-09-18T07:42:29.004Z,13.33
2022-09-18T07:43:28.865Z,13.32
2022-09-18T07:44:30.858Z,13.31
2022-09-18T07:45:29.217Z,13.29
2022-09-18T07:46:28.946Z,13.27
2022-09-18T07:47:30.019Z,13.25
2022-09-18T07:48:29.387Z,13.23
2022-09-18T07:50:29.200Z,13.22
2022-09-18T07:51:29.173Z,13.21
2022-09-18T07:52:28.892Z,13.20
2022-09-18T07:53:29.744Z,13.19
2022-09-18T07:54:28.836Z,13.16
2022-09-18T07:55:29.556Z,13.14
2022-09-18T07:56:28.876Z,13.12
2022-09-18T07:57:29.828Z,13.09
2022-09-18T07:58:28.830Z,13.07
2022-09-18T07:59:28.816Z,13.04
2022-09-18T08:00:33.513Z,13.02
2022-09-18T08:01:28.867Z,12.99
2022-09-18T08:02:29.030Z,12.97
2022-09-18T08:03:28.819Z,12.95
2022-09-18T08:04:28.815Z,12.93
2022-09-18T08:05:28.843Z,12.90
2022-09-18T08:06:29.270Z,12.88
2022-09-18T08:07:28.809Z,12.87
2022-09-18T08:08:30.250Z,12.84
2022-09-18T08:09:28.771Z,12.80
2022-09-18T08:10:28.827Z,12.78
2022-09-18T08:11:28.811Z,12.76
2022-09-18T08:12:28.877Z,12.73
2022-09-18T08:13:28.768Z,12.70
2022-09-18T08:14:29.249Z,12.68
2022-09-18T08:15:29.119Z,12.66
2022-09-18T08:16:28.832Z,12.63
2022-09-18T08:17:28.901Z,12.60
2022-09-18T08:18:28.771Z,12.56
2022-09-18T08:19:28.886Z,12.54
2022-09-18T08:20:28.851Z,12.50
2022-09-18T08:21:30.928Z,12.48
2022-09-18T08:22:28.877Z,12.45
2022-09-18T08:23:29.380Z,12.43
2022-09-18T08:24:29.190Z,12.41
2022-09-18T08:25:28.857Z,12.38
2022-09-18T08:26:28.858Z,12.37
2022-09-18T08:27:29.008Z,12.34
2022-09-18T08:28:29.290Z,12.33
2022-09-18T08:29:28.785Z,12.31
2022-09-18T08:30:29.881Z,12.29
2022-09-18T08:31:28.846Z,12.28
2022-09-18T08:32:28.929Z,12.26
2022-09-18T08:33:28.766Z,12.25
2022-09-18T08:34:28.841Z,12.23
2022-09-18T08:35:29.583Z,12.21
2022-09-18T08:36:28.844Z,12.20
2022-09-18T08:37:29.820Z,12.17
2022-09-18T08:38:28.785Z,12.16
2022-09-18T08:39:28.768Z,12.14
2022-09-18T08:40:37.688Z,12.13
2022-09-18T08:41:36.897Z,12.12
2022-09-18T08:42:42.613Z,12.09
2022-09-18T08:43:46.892Z,12.08
2022-09-18T08:44:31.239Z,12.06
2022-09-18T08:45:45.641Z,12.03
2022-09-18T08:46:37.107Z,12.02
2022-09-18T08:47:38.078Z,12.01
2022-09-18T08:48:32.169Z,12.00
2022-09-18T08:49:35.371Z,11.98
2022-09-18T08:50:36.291Z,11.96
2022-09-18T08:51:41.022Z,11.94
2022-09-18T08:52:32.270Z,11.92
2022-09-18T08:54:37.807Z,11.91
2022-09-18T08:55:33.879Z,11.90
2022-09-18T08:56:29.632Z,11.89
2022-09-18T08:57:35.947Z,11.86
2022-09-18T08:58:39.320Z,11.84
2022-09-18T08:59:38.241Z,11.83
2022-09-18T09:00:32.291Z,11.81
2022-09-18T09:01:41.107Z,11.80
2022-09-18T09:02:41.669Z,11.79
2022-09-18T09:03:35.213Z,11.78
2022-09-18T09:05:37.439Z,11.77
2022-09-18T09:06:38.526Z,11.76
2022-09-18T09:11:33.607Z,11.75
2022-09-18T09:12:42.485Z,11.76
2022-09-18T09:13:46.871Z,11.75
2022-09-18T09:17:47.173Z,11.74
2022-09-18T09:18:38.724Z,11.73
2022-09-18T09:19:33.939Z,11.71
2022-09-18T09:20:45.863Z,11.68
2022-09-18T09:21:46.917Z,11.66
2022-09-18T09:22:41.441Z,11.64
2022-09-18T09:23:46.897Z,11.62
2022-09-18T09:24:34.871Z,11.59
2022-09-18T09:25:33.171Z,11.57
2022-09-18T09:26:32.353Z,11.56
2022-09-18T09:27:34.022Z,11.55
2022-09-18T09:28:36.675Z,11.53
2022-09-18T09:29:32.567Z,11.51
2022-09-18T09:30:34.047Z,11.50
2022-09-18T09:31:37.770Z,11.48
2022-09-18T09:32:35.820Z,11.47
2022-09-18T09:33:36.119Z,11.46
2022-09-18T09:34:36.120Z,11.45
2022-09-18T09:35:36.021Z,11.44
2022-09-18T09:36:31.068Z,11.41
2022-09-18T09:37:37.897Z,11.40
2022-09-18T09:38:45.363Z,11.37
2022-09-18T09:39:40.240Z,11.33
2022-09-18T09:40:40.484Z,11.30
2022-09-18T09:41:39.767Z,11.27
2022-09-18T09:42:40.009Z,11.23
2022-09-18T09:43:39.727Z,11.19
2022-09-18T09:44:38.449Z,11.16
2022-09-18T09:45:34.685Z,11.13
2022-09-18T09:46:46.900Z,11.11
2022-09-18T09:47:38.557Z,11.07
2022-09-18T09:48:36.843Z,11.05
2022-09-18T09:49:32.988Z,11.03
2022-09-18T09:50:40.891Z,11.02
2022-09-18T09:51:37.147Z,11.00
2022-09-18T09:52:30.343Z,10.99
2022-09-18T09:53:30.146Z,10.97
2022-09-18T09:55:34.291Z,10.95
2022-09-18T09:56:38.330Z,10.94
2022-09-18T09:57:37.778Z,10.92
2022-09-18T09:58:45.450Z,10.91
2022-09-18T09:59:42.280Z,10.89
2022-09-18T10:00:39.347Z,10.88
2022-09-18T10:01:34.774Z,10.87
2022-09-18T10:02:42.097Z,10.86
2022-09-18T10:03:45.568Z,10.85
2022-09-18T10:05:40.599Z,10.84
2022-09-18T10:07:36.066Z,10.83
2022-09-18T10:08:38.611Z,10.82
2022-09-18T10:09:36.535Z,10.80
2022-09-18T10:10:36.411Z,10.79
2022-09-18T10:12:41.396Z,10.78
2022-09-18T10:14:32.371Z,10.77
2022-09-18T10:18:32.665Z,10.76
2022-09-18T10:19:37.239Z,10.75
2022-09-18T10:20:31.263Z,10.74
2022-09-18T10:21:35.053Z,10.72
2022-09-18T10:22:29.662Z,10.69
2022-09-18T10:23:39.044Z,10.67
2022-09-18T10:24:41.591Z,10.65
2022-09-18T10:25:39.334Z,10.62
2022-09-18T10:26:35.795Z,10.61
2022-09-18T10:27:28.999Z,10.58
2022-09-18T10:28:29.824Z,10.55
2022-09-18T10:29:30.876Z,10.52
2022-09-18T10:30:29.469Z,10.50
2022-09-18T10:31:46.851Z,10.48
2022-09-18T10:32:38.210Z,10.45
2022-09-18T10:33:36.523Z,10.43
2022-09-18T10:34:39.559Z,10.41
2022-09-18T10:35:37.541Z,10.39
2022-09-18T10:36:42.331Z,10.37
2022-09-18T10:37:38.703Z,10.36
2022-09-18T10:38:32.823Z,10.35
2022-09-18T10:39:31.541Z,10.34
2022-09-18T10:42:31.137Z,10.35
2022-09-18T10:43:28.740Z,10.36
2022-09-18T10:44:31.802Z,10.37
2022-09-18T10:45:32.821Z,10.38
2022-09-18T10:47:31.353Z,10.40
2022-09-18T10:48:29.435Z,10.41
2022-09-18T10:49:36.164Z,10.43
2022-09-18T10:51:29.544Z,10.44
2022-09-18T10:52:40.268Z,10.43
2022-09-18T10:57:31.839Z,10.45
2022-09-18T10:58:32.250Z,10.46
2022-09-18T10:59:36.445Z,10.47
2022-09-18T11:00:39.445Z,10.49
2022-09-18T11:01:30.111Z,10.50
2022-09-18T11:02:35.875Z,10.51
2022-09-18T11:03:42.142Z,10.52
2022-09-18T11:04:30.069Z,10.53
2022-09-18T11:05:31.972Z,10.54
2022-09-18T11:06:31.749Z,10.55
2022-09-18T11:07:29.156Z,10.58
2022-09-18T11:08:33.944Z,10.59
2022-09-18T11:09:35.001Z,10.60
2022-09-18T11:10:33.309Z,10.62
2022-09-18T11:11:30.307Z,10.61
2022-09-18T11:12:28.830Z,10.62
2022-09-18T11:13:30.828Z,10.63
2022-09-18T11:15:32.427Z,10.64
2022-09-18T11:18:31.178Z,10.63
2022-09-18T11:20:35.482Z,10.62
2022-09-18T11:22:38.366Z,10.61
2022-09-18T11:25:29.739Z,10.59
2022-09-18T11:26:30.858Z,10.58
2022-09-18T11:27:29.552Z,10.57
2022-09-18T11:28:32.474Z,10.55
2022-09-18T11:30:31.994Z,10.54
2022-09-18T11:31:45.077Z,10.56
2022-09-18T11:34:33.756Z,10.57
2022-09-18T11:37:36.747Z,10.58
2022-09-18T11:38:29.978Z,10.59
2022-09-18T11:39:34.698Z,10.60
2022-09-18T11:41:35.722Z,10.62
2022-09-18T11:43:32.864Z,10.63
2022-09-18T11:45:43.649Z,10.64
2022-09-18T11:47:43.588Z,10.65
2022-09-18T11:48:35.401Z,10.66
2022-09-18T11:49:37.006Z,10.67
2022-09-18T11:51:39.512Z,10.68
2022-09-18T11:52:37.727Z,10.69
2022-09-18T11:53:32.748Z,10.71
2022-09-18T11:54:38.021Z,10.72
2022-09-18T11:55:37.442Z,10.73
2022-09-18T11:56:35.968Z,10.75
2022-09-18T11:57:36.659Z,10.77
2022-09-18T11:58:35.283Z,10.79
2022-09-18T11:59:30.931Z,10.81
2022-09-18T12:01:41.561Z,10.83
2022-09-18T12:02:36.165Z,10.84
2022-09-18T12:03:32.371Z,10.86
2022-09-18T12:05:39.745Z,10.88
2022-09-18T12:07:39.091Z,10.89
2022-09-18T12:08:45.379Z,10.90
2022-09-18T12:13:45.593Z,10.91
2022-09-18T12:14:39.851Z,10.92
2022-09-18T12:15:34.316Z,10.93
2022-09-18T12:16:32.089Z,10.94
2022-09-18T12:18:31.925Z,10.95
2022-09-18T12:19:32.317Z,10.97
2022-09-18T12:20:31.996Z,10.99
2022-09-18T12:22:33.928Z,11.00
2022-09-18T12:23:27.616Z,11.01
2022-09-18T12:24:27.403Z,11.02
2022-09-18T12:25:40.664Z,11.04
2022-09-18T12:26:39.626Z,11.05
2022-09-18T12:27:32.758Z,11.07
2022-09-18T12:29:42.877Z,11.08
2022-09-18T12:30:38.105Z,11.09
2022-09-18T12:34:32.350Z,11.10
2022-09-18T12:36:34.384Z,11.11
2022-09-18T12:37:34.546Z,11.12
2022-09-18T12:38:41.804Z,11.13
2022-09-18T12:40:44.671Z,11.14
2022-09-18T12:44:35.334Z,11.13
2022-09-18T12:46:43.318Z,11.14
2022-09-18T12:49:46.054Z,11.15
2022-09-18T12:53:06.270Z,11.16
2022-09-18T12:53:34.134Z,11.17
2022-09-18T12:54:46.061Z,11.18
2022-09-18T12:56:44.693Z,11.19
2022-09-18T12:58:36.731Z,11.20
2022-09-18T12:59:40.994Z,11.19
2022-09-18T13:07:34.343Z,11.18
2022-09-18T13:09:35.894Z,11.17
2022-09-18T13:10:34.072Z,11.16
2022-09-18T13:12:34.511Z,11.15
2022-09-18T13:13:38.326Z,11.16
2022-09-18T13:17:34.738Z,11.15
2022-09-18T13:19:34.193Z,11.13
2022-09-18T13:20:35.166Z,11.12
2022-09-18T13:21:31.767Z,11.11
2022-09-18T13:22:33.534Z,11.10
2022-09-18T13:23:33.699Z,11.08
2022-09-18T13:24:34.123Z,11.07
2022-09-18T13:25:34.218Z,11.06
2022-09-18T13:26:34.071Z,11.05
2022-09-18T13:28:29.516Z,11.04
2022-09-18T13:29:46.718Z,11.03
2022-09-18T13:31:31.990Z,11.02
2022-09-18T13:32:39.188Z,11.01
2022-09-18T13:34:29.275Z,11.00
2022-09-18T13:35:32.869Z,10.99
2022-09-18T13:36:32.573Z,10.98
2022-09-18T13:37:31.066Z,10.96
2022-09-18T13:38:29.736Z,10.95
2022-09-18T13:40:36.041Z,10.93
2022-09-18T13:42:36.257Z,10.92
2022-09-18T13:43:40.142Z,10.90
2022-09-18T13:44:30.952Z,10.89
2022-09-18T13:45:37.362Z,10.86
2022-09-18T13:47:29.764Z,10.85
2022-09-18T13:48:31.292Z,10.84
2022-09-18T13:50:30.437Z,10.85
2022-09-18T13:52:37.292Z,10.84
2022-09-18T13:54:30.157Z,10.85
2022-09-18T13:56:50.342Z,10.86
2022-09-18T13:58:39.039Z,10.88
2022-09-18T13:59:46.691Z,10.89
2022-09-18T14:00:37.574Z,10.90
2022-09-18T14:01:45.215Z,10.92
2022-09-18T14:02:33.477Z,10.93
2022-09-18T14:03:38.904Z,10.94
2022-09-18T14:04:41.180Z,10.95
2022-09-18T14:07:37.249Z,10.97
2022-09-18T14:08:37.954Z,10.98
2022-09-18T14:09:46.787Z,11.00
2022-09-18T14:10:35.104Z,11.01
2022-09-18T14:11:28.907Z,11.02
2022-09-18T14:14:29.541Z,11.03
2022-09-18T14:18:31.442Z,11.04
2022-09-18T14:27:37.439Z,11.03
2022-09-18T14:28:29.808Z,11.04
2022-09-18T14:29:32.026Z,11.03
2022-09-18T14:31:35.619Z,11.00
2022-09-18T14:32:28.947Z,10.99
2022-09-18T14:35:46.353Z,11.01
2022-09-18T14:36:28.523Z,11.02
2022-09-18T14:37:31.040Z,11.04
2022-09-18T14:38:33.421Z,11.06
2022-09-18T14:39:30.623Z,11.09
2022-09-18T14:40:30.628Z,11.11
2022-09-18T14:41:33.837Z,11.13
2022-09-18T14:42:34.276Z,11.14
2022-09-18T14:43:28.942Z,11.16
2022-09-18T14:44:30.510Z,11.18
2022-09-18T14:45:31.785Z,11.19
2022-09-18T14:46:29.383Z,11.21
2022-09-18T14:47:28.726Z,11.22
2022-09-18T14:49:36.169Z,11.23
2022-09-18T14:50:35.207Z,11.24
2022-09-18T14:51:40.596Z,11.26
2022-09-18T14:52:32.577Z,11.27
2022-09-18T14:53:29.802Z,11.29
2022-09-18T14:54:30.173Z,11.31
2022-09-18T14:55:35.842Z,11.32
2022-09-18T14:56:32.817Z,11.33
2022-09-18T14:57:33.733Z,11.34
2022-09-18T14:58:35.363Z,11.36
2022-09-18T14:59:29.460Z,11.38
2022-09-18T15:00:31.722Z,11.39
2022-09-18T15:01:33.671Z,11.41
2022-09-18T15:02:33.597Z,11.43
2022-09-18T15:03:32.400Z,11.45
2022-09-18T15:04:28.606Z,11.46
2022-09-18T15:06:32.409Z,11.48
2022-09-18T15:09:33.002Z,11.50
2022-09-18T15:12:31.748Z,11.51
2022-09-18T15:14:40.788Z,11.50
2022-09-18T15:15:33.211Z,11.51
2022-09-18T15:17:32.574Z,11.52
2022-09-18T15:18:30.464Z,11.54
2022-09-18T15:19:29.814Z,11.55
2022-09-18T15:20:30.565Z,11.56
2022-09-18T15:21:33.366Z,11.55
2022-09-18T15:25:33.280Z,11.54
2022-09-18T15:26:33.454Z,11.52
2022-09-18T15:27:30.022Z,11.51
2022-09-18T15:28:31.525Z,11.50
2022-09-18T15:30:29.096Z,11.49
2022-09-18T15:33:29.003Z,11.48
2022-09-18T15:34:29.849Z,11.47
2022-09-18T15:35:34.083Z,11.45
2022-09-18T15:36:33.856Z,11.44
2022-09-18T15:37:29.413Z,11.42
2022-09-18T15:38:40.502Z,11.40
2022-09-18T15:39:30.887Z,11.39
2022-09-18T15:40:33.657Z,11.37
2022-09-18T15:41:33.724Z,11.36
2022-09-18T15:42:35.817Z,11.34
2022-09-18T15:43:43.545Z,11.33
2022-09-18T15:44:38.273Z,11.32
2022-09-18T15:46:32.728Z,11.31
2022-09-18T15:50:37.701Z,11.32
2022-09-18T15:56:31.006Z,11.33
2022-09-18T15:57:28.481Z,11.32
2022-09-18T15:59:32.852Z,11.33
2022-09-18T16:01:35.647Z,11.34
2022-09-18T16:02:36.215Z,11.36
2022-09-18T16:03:31.407Z,11.38